createdAt,value
2023-03-15T00:02:23.867Z,1.55
2023-03-15T00:05:26.287Z,1.65
2023-03-15T00:08:28.915Z,1.63
2023-03-15T00:11:31.447Z,1.41
2023-03-15T00:14:33.935Z,1.67
2023-03-15T00:17:36.273Z,1.64
2023-03-15T00:20:38.784Z,1.64
2023-03-15T00:23:41.222Z,1.63
2023-03-15T00:26:43.622Z,1.63
2023-03-15T00:29:46.002Z,1.46
2023-03-15T00:32:48.492Z,1.82
2023-03-15T00:35:53.929Z,1.69
2023-03-15T00:38:57.520Z,1.84
2023-03-15T00:41:59.882Z,1.36
2023-03-15T00:45:02.596Z,1.39
2023-03-15T00:48:05.197Z,1.62
2023-03-15T00:51:14.482Z,1.74
2023-03-15T00:54:16.909Z,1.75
2023-03-15T00:57:20.388Z,1.48
2023-03-15T01:00:25.043Z,1.67
2023-03-15T01:03:28.936Z,1.60
2023-03-15T01:06:31.462Z,1.65
2023-03-15T01:09:35.101Z,1.79
2023-03-15T01:12:37.488Z,1.41
2023-03-15T01:15:39.820Z,1.47
2023-03-15T01:18:42.267Z,1.32
2023-03-15T01:21:47.849Z,1.33
2023-03-15T01:24:52.709Z,1.10
2023-03-15T01:27:55.044Z,1.12
2023-03-15T01:30:59.774Z,0.91
2023-03-15T01:34:02.437Z,0.85
2023-03-15T01:37:08.010Z,1.04
2023-03-15T01:40:15.929Z,1.05
2023-03-15T01:43:21.288Z,1.29
2023-03-15T01:46:29.314Z,1.31
2023-03-15T01:49:37.404Z,1.12
2023-03-15T01:52:41.348Z,1.31
2023-03-15T01:55:50.066Z,1.34
2023-03-15T01:58:57.479Z,1.57
2023-03-15T02:02:00.848Z,1.19
2023-03-15T02:05:11.214Z,1.31
2023-03-15T02:08:16.598Z,1.24
2023-03-15T02:11:22.460Z,1.13
2023-03-15T02:14:25.424Z,1.32
2023-03-15T02:17:38.345Z,1.03
2023-03-15T02:20:43.611Z,1.21
2023-03-15T02:23:49.145Z,1.17
2023-03-15T02:26:55.513Z,1.53
2023-03-15T02:29:58.008Z,1.49
2023-03-15T02:33:01.794Z,1.07
2023-03-15T02:36:11.721Z,1.34
2023-03-15T02:39:19.259Z,1.38
2023-03-15T02:42:21.922Z,1.42
2023-03-15T02:45:25.194Z,1.30
2023-03-15T02:48:27.621Z,1.20
2023-03-15T02:51:30.806Z,1.37
2023-03-15T02:54:34.400Z,1.33
2023-03-15T02:57:38.139Z,1.51
2023-03-15T03:00:41.463Z,1.32
2023-03-15T03:03:45.361Z,1.17
2023-03-15T03:06:49.268Z,1.32
2023-03-15T03:09:56.077Z,1.39
2023-03-15T03:12:58.747Z,1.22
2023-03-15T03:16:11.045Z,1.17
2023-03-15T03:19:13.902Z,1.23
2023-03-15T03:22:18.303Z,1.03
2023-03-15T03:25:20.734Z,0.80
2023-03-15T03:28:25.475Z,1.04
2023-03-15T03:31:28.839Z,0.87
2023-03-15T03:34:32.568Z,0.73
2023-03-15T03:37:36.026Z,0.59
2023-03-15T03:40:52.581Z,0.87
2023-03-15T03:43:54.950Z,0.93
2023-03-15T03:46:58.720Z,0.85
2023-03-15T03:50:01.116Z,0.68
2023-03-15T03:53:03.568Z,0.54
2023-03-15T03:56:09.920Z,0.64
2023-03-15T03:59:13.508Z,0.62
2023-03-15T04:02:29.749Z,0.62
2023-03-15T04:05:37.043Z,0.58
2023-03-15T04:08:41.294Z,0.52
2023-03-15T04:11:46.234Z,0.31
2023-03-15T04:14:51.374Z,0.40
2023-03-15T04:17:56.140Z,0.28
2023-03-15T04:21:00.266Z,0.19
2023-03-15T04:24:03.093Z,0.30
2023-03-15T04:27:19.982Z,0.24
2023-03-15T04:30:37.856Z,0.15
2023-03-15T04:33:52.107Z,0.08
2023-03-15T04:37:24.815Z,0.01
2023-03-15T04:40:30.835Z,-0.02
2023-03-15T04:43:47.993Z,0.05
2023-03-15T04:46:59.892Z,0.01
2023-03-15T04:50:21.580Z,0.01
2023-03-15T04:53:32.363Z,-0.08
2023-03-15T04:56:54.616Z,-0.05
2023-03-15T05:00:08.283Z,-0.09
2023-03-15T05:03:19.037Z,-0.07
2023-03-15T05:06:40.153Z,-0.16
2023-03-15T05:09:54.680Z,-0.12
2023-03-15T05:13:12.012Z,-0.16
2023-03-15T05:16:34.890Z,-0.12
2023-03-15T05:19:52.993Z,-0.17
2023-03-15T05:23:06.768Z,-0.13
2023-03-15T05:26:18.471Z,-0.29
2023-03-15T05:29:46.750Z,-0.09
2023-03-15T05:33:14.117Z,-0.06
2023-03-15T05:36:39.164Z,0.08
2023-03-15T05:40:16.998Z,0.13
2023-03-15T05:43:29.547Z,0.06
2023-03-15T05:46:48.981Z,0.08
2023-03-15T05:50:12.042Z,0.05
2023-03-15T05:53:26.930Z,0.13
2023-03-15T05:56:38.891Z,0.08
2023-03-15T06:00:09.382Z,0.08
2023-03-15T06:03:17.792Z,-0.35
2023-03-15T06:06:33.648Z,0.18
2023-03-15T06:09:38.746Z,0.20
2023-03-15T06:12:41.345Z,0.38
2023-03-15T06:15:43.862Z,0.48
2023-03-15T06:18:49.135Z,0.54
2023-03-15T06:21:52.911Z,0.56
2023-03-15T06:25:08.136Z,0.42
2023-03-15T06:28:10.660Z,0.76
2023-03-15T06:31:17.563Z,0.64
2023-03-15T06:34:28.825Z,0.94
2023-03-15T06:37:35.344Z,0.76
2023-03-15T06:40:39.068Z,0.83
2023-03-15T06:43:42.011Z,1.14
2023-03-15T06:46:44.681Z,0.84
2023-03-15T06:49:50.577Z,0.73
2023-03-15T06:52:54.137Z,1.00
2023-03-15T06:55:56.794Z,1.08
2023-03-15T06:58:59.510Z,1.27
2023-03-15T07:02:01.877Z,1.36
2023-03-15T07:05:05.998Z,1.33
2023-03-15T07:08:08.921Z,1.69
2023-03-15T07:11:11.623Z,1.34
2023-03-15T07:14:14.296Z,1.54
2023-03-15T07:17:16.907Z,1.40
2023-03-15T07:20:19.324Z,1.96
2023-03-15T07:23:21.938Z,1.94
2023-03-15T07:26:24.572Z,1.67
2023-03-15T07:29:27.253Z,1.76
2023-03-15T07:32:32.040Z,1.40
2023-03-15T07:35:34.636Z,1.87
2023-03-15T07:38:37.521Z,2.01
2023-03-15T07:41:40.163Z,1.93
2023-03-15T07:44:51.079Z,2.24
2023-03-15T07:47:56.524Z,1.89
2023-03-15T07:50:59.072Z,2.08
2023-03-15T07:54:01.782Z,1.93
2023-03-15T07:57:04.454Z,2.42
2023-03-15T08:00:08.381Z,1.98
2023-03-15T08:03:15.001Z,2.28
2023-03-15T08:06:17.708Z,2.42
2023-03-15T08:09:20.138Z,2.59
2023-03-15T08:12:22.611Z,2.34
2023-03-15T08:15:25.974Z,2.02
2023-03-15T08:18:31.610Z,2.33
2023-03-15T08:21:34.076Z,1.99
2023-03-15T08:24:37.214Z,2.42
2023-03-15T08:27:40.349Z,2.33
2023-03-15T08:30:43.158Z,2.52
2023-03-15T08:33:45.738Z,2.68
2023-03-15T08:36:49.189Z,2.78
2023-03-15T08:40:01.044Z,2.39
2023-03-15T08:43:03.439Z,2.48
2023-03-15T08:46:06.156Z,3.04
2023-03-15T08:49:08.881Z,2.84
2023-03-15T08:52:11.381Z,3.08
2023-03-15T08:55:14.538Z,3.10
2023-03-15T08:58:16.987Z,3.05
2023-03-15T09:01:19.887Z,2.89
2023-03-15T09:04:22.553Z,3.03
2023-03-15T09:07:24.874Z,3.32
2023-03-15T09:10:27.311Z,3.49
2023-03-15T09:13:30.138Z,2.69
2023-03-15T09:16:32.952Z,3.20
2023-03-15T09:19:35.774Z,3.35
2023-03-15T09:22:39.785Z,3.72
2023-03-15T09:25:42.242Z,3.52
2023-03-15T09:28:44.730Z,3.93
2023-03-15T09:31:47.172Z,3.52
2023-03-15T09:34:49.941Z,3.46
2023-03-15T09:37:52.300Z,3.24
2023-03-15T09:41:01.705Z,3.19
2023-03-15T09:44:32.094Z,2.99
2023-03-15T09:48:05.581Z,3.57
2023-03-15T09:51:14.562Z,3.28
2023-03-15T09:54:21.202Z,3.49
2023-03-15T09:57:36.741Z,3.79
2023-03-15T10:00:55.130Z,3.74
2023-03-15T10:03:58.152Z,2.97
2023-03-15T10:07:03.235Z,3.21
2023-03-15T10:10:15.315Z,3.07
2023-03-15T10:13:32.902Z,3.44
2023-03-15T10:16:44.070Z,3.54
2023-03-15T10:19:50.408Z,3.38
2023-03-15T10:23:16.800Z,3.52
2023-03-15T10:26:24.756Z,3.27
2023-03-15T10:29:27.987Z,3.73
2023-03-15T10:32:39.203Z,3.80
2023-03-15T10:35:43.265Z,3.82
2023-03-15T10:38:46.009Z,4.13
2023-03-15T10:41:50.533Z,3.74
2023-03-15T10:44:53.219Z,3.82
2023-03-15T10:48:00.274Z,3.72
2023-03-15T10:51:18.637Z,3.48
2023-03-15T10:54:25.145Z,3.80
2023-03-15T10:57:28.970Z,3.70
2023-03-15T11:00:36.905Z,3.84
2023-03-15T11:03:39.519Z,3.63
2023-03-15T11:06:52.195Z,3.91
2023-03-15T11:09:59.270Z,3.63
2023-03-15T11:13:10.992Z,4.10
2023-03-15T11:16:13.393Z,4.42
2023-03-15T11:19:21.839Z,3.90
2023-03-15T11:22:25.095Z,4.51
2023-03-15T11:25:31.886Z,4.08
2023-03-15T11:28:37.678Z,4.10
2023-03-15T11:31:40.680Z,3.97
2023-03-15T11:34:48.233Z,4.20
2023-03-15T11:38:13.089Z,4.02
2023-03-15T11:41:28.881Z,4.54
2023-03-15T11:44:41.104Z,4.69
2023-03-15T11:47:56.606Z,4.10
2023-03-15T11:50:59.594Z,4.09
2023-03-15T11:54:18.970Z,3.72
2023-03-15T11:57:33.252Z,3.65
2023-03-15T12:00:35.465Z,4.00
2023-03-15T12:03:43.130Z,4.14
2023-03-15T12:06:45.543Z,4.38
2023-03-15T12:10:03.816Z,4.48
2023-03-15T12:13:25.758Z,4.27
2023-03-15T12:16:34.952Z,4.13
2023-03-15T12:19:37.504Z,3.53
2023-03-15T12:22:48.456Z,3.55
2023-03-15T12:25:57.462Z,3.52
2023-03-15T12:28:59.710Z,3.29
2023-03-15T12:32:06.258Z,3.50
2023-03-15T12:35:17.229Z,3.53
2023-03-15T12:38:22.363Z,3.38
2023-03-15T12:41:43.865Z,3.48
2023-03-15T12:44:46.335Z,3.77
2023-03-15T12:47:51.595Z,3.87
2023-03-15T12:50:57.020Z,3.90
2023-03-15T12:53:59.727Z,3.67
2023-03-15T12:57:04.760Z,3.96
2023-03-15T13:00:15.808Z,4.09
2023-03-15T13:03:23.721Z,3.51
2023-03-15T13:06:34.989Z,3.88
2023-03-15T13:10:01.108Z,3.78
2023-03-15T13:13:41.216Z,3.87
2023-03-15T13:17:30.014Z,4.27
2023-03-15T13:20:46.442Z,4.64
2023-03-15T13:23:54.694Z,5.17
2023-03-15T13:27:25.778Z,5.50
2023-03-15T13:30:35.110Z,5.49
2023-03-15T13:33:37.617Z,5.78
2023-03-15T13:36:45.951Z,5.74
2023-03-15T13:40:16.064Z,5.85
2023-03-15T13:43:18.559Z,5.81
2023-03-15T13:46:24.008Z,5.81
2023-03-15T13:49:31.373Z,5.80
2023-03-15T13:52:34.256Z,6.15
2023-03-15T13:55:37.311Z,6.23
2023-03-15T13:58:40.103Z,5.90
2023-03-15T14:01:43.329Z,5.86
2023-03-15T14:04:52.432Z,6.03
2023-03-15T14:07:57.526Z,5.77
2023-03-15T14:11:20.526Z,5.48
2023-03-15T14:14:25.430Z,5.34
2023-03-15T14:17:30.243Z,5.28
2023-03-15T14:20:43.636Z,5.18
2023-03-15T14:23:48.116Z,5.18
2023-03-15T14:27:01.602Z,4.88
2023-03-15T14:30:04.688Z,5.41
2023-03-15T14:33:10.452Z,5.60
2023-03-15T14:36:27.002Z,6.10
2023-03-15T14:39:39.682Z,6.66
2023-03-15T14:42:42.603Z,6.41
2023-03-15T14:45:47.922Z,6.19
2023-03-15T14:48:51.290Z,6.11
2023-03-15T14:52:02.368Z,6.40
2023-03-15T14:55:05.146Z,6.43
2023-03-15T14:58:13.232Z,6.45
2023-03-15T15:01:18.667Z,5.97
2023-03-15T15:04:21.909Z,5.69
2023-03-15T15:07:24.313Z,5.47
2023-03-15T15:10:26.686Z,5.41
2023-03-15T15:13:31.665Z,5.29
2023-03-15T15:16:34.219Z,5.19
2023-03-15T15:19:36.622Z,4.93
2023-03-15T15:22:40.158Z,5.16
2023-03-15T15:25:42.452Z,5.21
2023-03-15T15:28:45.179Z,5.27
2023-03-15T15:31:47.530Z,5.35
2023-03-15T15:34:49.934Z,5.49
2023-03-15T15:37:52.773Z,5.54
2023-03-15T15:40:55.173Z,5.43
2023-03-15T15:44:01.443Z,5.41
2023-03-15T15:47:03.832Z,5.37
2023-03-15T15:50:06.865Z,5.24
2023-03-15T15:53:16.540Z,5.16
2023-03-15T15:56:19.102Z,5.08
2023-03-15T15:59:21.565Z,5.08
2023-03-15T16:02:24.395Z,4.79
2023-03-15T16:05:29.817Z,4.58
2023-03-15T16:08:35.394Z,4.45
2023-03-15T16:11:37.965Z,4.32
2023-03-15T16:14:40.702Z,4.45
2023-03-15T16:17:43.283Z,4.22
2023-03-15T16:20:45.687Z,3.88
2023-03-15T16:23:51.966Z,3.63
2023-03-15T16:27:00.238Z,3.44
2023-03-15T16:30:04.717Z,3.54
2023-03-15T16:33:16.519Z,3.49
2023-03-15T16:36:20.354Z,3.26
2023-03-15T16:39:23.130Z,3.03
2023-03-15T16:42:25.879Z,2.94
2023-03-15T16:45:28.625Z,2.73
2023-03-15T16:48:31.276Z,2.73
2023-03-15T16:51:34.108Z,2.59
2023-03-15T16:54:41.370Z,2.54
2023-03-15T16:57:44.496Z,2.44
2023-03-15T17:00:48.487Z,2.34
2023-03-15T17:03:51.211Z,2.25
2023-03-15T17:06:53.901Z,2.15
2023-03-15T17:09:57.182Z,2.07
2023-03-15T17:13:02.024Z,1.93
2023-03-15T17:16:04.602Z,1.74
2023-03-15T17:19:13.790Z,1.79
2023-03-15T17:22:17.536Z,1.65
2023-03-15T17:25:20.318Z,1.51
2023-03-15T17:28:22.893Z,1.62
2023-03-15T17:31:25.926Z,1.62
2023-03-15T17:34:28.340Z,1.59
2023-03-15T17:37:34.030Z,1.60
2023-03-15T17:40:36.629Z,1.57
2023-03-15T17:43:39.076Z,1.29
2023-03-15T17:46:43.108Z,1.48
2023-03-15T17:49:45.464Z,1.20
2023-03-15T17:52:51.986Z,1.12
2023-03-15T17:55:54.339Z,0.99
2023-03-15T17:58:56.773Z,1.19
2023-03-15T18:01:59.201Z,0.79
2023-03-15T18:05:01.564Z,0.97
2023-03-15T18:08:04.137Z,0.84
2023-03-15T18:11:21.144Z,0.88
2023-03-15T18:14:23.593Z,0.68
2023-03-15T18:17:26.401Z,0.73
2023-03-15T18:20:29.439Z,0.56
2023-03-15T18:23:31.832Z,0.56
2023-03-15T18:26:34.225Z,0.49
2023-03-15T18:29:36.536Z,0.48
2023-03-15T18:32:38.933Z,0.49
2023-03-15T18:35:41.375Z,0.42
2023-03-15T18:38:43.881Z,0.39
2023-03-15T18:41:46.256Z,-0.26
2023-03-15T18:44:48.654Z,0.36
2023-03-15T18:47:51.450Z,0.38
2023-03-15T18:50:53.916Z,0.39
2023-03-15T18:53:56.565Z,0.27
2023-03-15T18:56:59.492Z,0.25
2023-03-15T19:00:01.955Z,0.09
2023-03-15T19:03:05.760Z,0.18
2023-03-15T19:06:09.741Z,0.31
2023-03-15T19:09:12.123Z,0.01
2023-03-15T19:12:15.077Z,-0.13
2023-03-15T19:15:19.799Z,-0.06
2023-03-15T19:18:23.236Z,-0.04
2023-03-15T19:21:26.582Z,-0.15
2023-03-15T19:24:29.003Z,-0.09
2023-03-15T19:27:31.367Z,-0.24
2023-03-15T19:30:33.799Z,-0.09
2023-03-15T19:33:36.329Z,-0.25
2023-03-15T19:36:38.753Z,-0.26
2023-03-15T19:39:41.188Z,-0.25
2023-03-15T19:42:43.617Z,-0.28
2023-03-15T19:45:46.433Z,-0.20
2023-03-15T19:48:48.829Z,-0.12
2023-03-15T19:51:51.222Z,-0.37
2023-03-15T19:54:54.055Z,-0.08
2023-03-15T19:57:56.484Z,-0.16
2023-03-15T20:00:58.838Z,-0.38
2023-03-15T20:04:01.335Z,-0.24
2023-03-15T20:07:04.253Z,-0.37
2023-03-15T20:10:08.789Z,-0.25
2023-03-15T20:13:11.780Z,-0.26
2023-03-15T20:16:14.175Z,-0.42
2023-03-15T20:19:16.590Z,-0.48
2023-03-15T20:22:19.878Z,-0.30
2023-03-15T20:25:22.238Z,-0.27
2023-03-15T20:28:24.563Z,-0.38
2023-03-15T20:31:26.895Z,-0.36
2023-03-15T20:34:29.569Z,-0.42
2023-03-15T20:37:32.349Z,-0.54
2023-03-15T20:40:38.708Z,-0.79
2023-03-15T20:43:42.339Z,-0.86
2023-03-15T20:46:44.974Z,-0.73
2023-03-15T20:49:47.436Z,-0.88
2023-03-15T20:52:49.904Z,-0.94
2023-03-15T20:55:52.468Z,-0.81
2023-03-15T20:58:55.350Z,-0.74
2023-03-15T21:01:57.921Z,-0.65
2023-03-15T21:05:00.303Z,-0.48
2023-03-15T21:08:02.690Z,-0.45
2023-03-15T21:11:06.725Z,-0.58
2023-03-15T21:14:09.480Z,-0.64
2023-03-15T21:17:14.461Z,-0.72
2023-03-15T21:20:17.853Z,-0.79
2023-03-15T21:23:20.241Z,-0.74
2023-03-15T21:26:25.421Z,-0.69
2023-03-15T21:29:27.845Z,-0.74
2023-03-15T21:32:30.445Z,-0.84
2023-03-15T21:35:32.935Z,-0.87
2023-03-15T21:38:36.659Z,-0.93
2023-03-15T21:41:38.999Z,-0.94
2023-03-15T21:44:41.876Z,-0.95
2023-03-15T21:47:47.034Z,-1.12
2023-03-15T21:50:53.760Z,-1.18
2023-03-15T21:53:56.775Z,-1.33
2023-03-15T21:56:59.242Z,-1.31
2023-03-15T22:00:01.748Z,-1.25
2023-03-15T22:03:16.799Z,-1.25
2023-03-15T22:06:19.433Z,-1.33
2023-03-15T22:09:23.439Z,-1.42
2023-03-15T22:12:25.874Z,-1.40
2023-03-15T22:15:28.293Z,-1.43
2023-03-15T22:18:32.193Z,-1.63
2023-03-15T22:21:34.486Z,-1.55
2023-03-15T22:24:37.068Z,-1.75
2023-03-15T22:27:39.894Z,-1.85
2023-03-15T22:30:42.763Z,-1.57
2023-03-15T22:33:45.265Z,-1.67
2023-03-15T22:36:47.627Z,-1.59
2023-03-15T22:39:50.272Z,-1.58
2023-03-15T22:42:52.964Z,-1.58
2023-03-15T22:45:55.250Z,-1.59
2023-03-15T22:48:57.882Z,-1.46
2023-03-15T22:52:00.161Z,-1.56
2023-03-15T22:55:02.534Z,-1.56
2023-03-15T22:58:04.738Z,-1.43
2023-03-15T23:01:07.316Z,-1.25
2023-03-15T23:04:09.740Z,-1.15
2023-03-15T23:07:12.626Z,-1.17
2023-03-15T23:10:15.599Z,-1.27
2023-03-15T23:13:18.216Z,-1.35
2023-03-15T23:16:20.735Z,-1.29
2023-03-15T23:19:23.080Z,-1.34
2023-03-15T23:22:25.454Z,-1.34
2023-03-15T23:25:29.004Z,-1.36
2023-03-15T23:28:31.894Z,-1.51
2023-03-15T23:31:34.246Z,-1.45
2023-03-15T23:34:42.704Z,-1.49
2023-03-15T23:37:45.028Z,-1.45
2023-03-15T23:40:54.756Z,-1.08
2023-03-15T23:43:57.469Z,-0.95
2023-03-15T23:47:00.395Z,-0.76
2023-03-15T23:50:02.897Z,-0.65
2023-03-15T23:53:05.807Z,-0.70
2023-03-15T23:56:08.160Z,-0.81
2023-03-15T23:59:11.019Z,-0.76
